메인 페이지
METAR-TAF:

METAR-TAF

공항 :

아나파, 러시아

위도: 44-54N, 경도: 037-19E, 고도: 53m

현재 날씨관측

예보는 36분 전, 15:00시(UTC)에 발표되었습니다.
남남동4kt
온도 14°C
습도 77%
기압 1023 hPa
시정 10km 이상
구름 보통

METAR: URKA 221500Z 16002MPS 9999 SCT/// 14/10 Q1023 R22/010065 NOSIG RMK QFE762/1017

시각: 19:36 (15:36 UTC)

예보

예보는 1 시간 54분 전, 13:42시(UTC)에 발표되었습니다.
예보 대상 시간: 22일 15시부터 23일 15시까지 (UTC)
남서6kt, 순간 최대 풍속 16kt
시정 10km 이상
고도 3000ft 상공 구름 보통
22일 2100시부터 (UTC)
동남동6kt, 순간 최대 풍속 16kt
시정: 3100m
고도 700ft 상공 구름 보통
박무
일시적
22일 21시부터 23일 07시까지 (UTC)
시정: 0200m
고도 200ft 상공 구름 보통
안개
23일 0700시부터 (UTC)
6kt, 순간 최대 풍속 16kt
시정 10km 이상
고도 2000ft 상공 구름 보통

TAF: URKA 221342Z 2215/2315 23003G08MPS 9999 SCT030 FM222100 12003G08MPS 3100 BR SCT007 TEMPO 2221/2307 0200 FG SCT002 FM230700 17003G08MPS 9999 SCT020

4,000개 이상의 공항 관측 자료 및 예보 (METAR 및 TAF 보고).

지도상에서 검색 가능한 기상관측소가 노란 점과 빨간 점으로 표시되어 있습니다.

기상관측소 명을 보려면 표시 위로 마우스를 이동하세요.

날씨 관측과 예보를 보려면 클릭하세요.

지도 변경 : 확대하려면 엑스 표시가 있는 녹색 버튼, 축소하려면 빼기 표시가 있는 녹색 버튼, 다음 페이지의 지도를 보려면 녹색 화살표를 클릭하세요.


METAR-TAF: